Time;durP1;ratioP1;P1;durP2;ratioP2;P2;SDS_P1;SDS_P2;PMS_P1;PMS_P2;Temp;Humidity;BMP_temperature;BMP_pressure;BME280_temperature;BME280_humidity;BME280_pressure;Samples;Min_cycle;Max_cycle;Signal;HPM_P1;HPM_P2
2022/05/10 00:01:46;;;;;;;9.02;4.68;;;;;;;;;;4917390;29;20056;-74
2022/05/10 00:04:14;;;;;;;15.77;7.60;;;;;;;;;;4916603;29;20566;-74
2022/05/10 00:07:07;;;;;;;14.25;6.72;;;;;;;;;;4917164;29;20041;-74
2022/05/10 00:09:36;;;;;;;15.52;7.55;;;;;;;;;;4917367;29;20071;-74
2022/05/10 00:12:06;;;;;;;8.82;4.30;;;;;;;;;;4916100;29;20055;-74
2022/05/10 00:14:44;;;;;;;8.40;4.53;;;;;;;;;;4917171;29;20040;-74
2022/05/10 00:17:20;;;;;;;7.22;4.38;;;;;;;;;;4917366;29;20115;-73
2022/05/10 00:19:48;;;;;;;9.23;4.93;;;;;;;;;;4916329;29;20131;-74
2022/05/10 00:22:41;;;;;;;11.18;6.07;;;;;;;;;;4917086;29;20048;-74
2022/05/10 00:25:16;;;;;;;11.82;5.00;;;;;;;;;;4916859;29;20043;-74
2022/05/10 00:27:43;;;;;;;10.93;5.40;;;;;;;;;;4900225;29;20437;-74
2022/05/10 00:30:11;;;;;;;9.23;4.72;;;;;;;;;;4899791;29;20109;-74
2022/05/10 00:32:45;;;;;;;10.30;5.28;;;;;;;;;;4916844;29;20112;-74
2022/05/10 00:35:16;;;;;;;11.35;5.28;;;;;;;;;;4916800;29;20048;-74
2022/05/10 00:37:46;;;;;;;8.38;5.07;;;;;;;;;;4916876;29;20082;-74
2022/05/10 00:40:21;;;;;;;9.88;5.45;;;;;;;;;;4916907;29;20052;-74
2022/05/10 00:43:08;;;;;;;11.90;5.55;;;;;;;;;;4917009;29;20452;-73
2022/05/10 00:45:46;;;;;;;10.00;5.05;;;;;;;;;;4916992;29;20141;-74
2022/05/10 00:48:16;;;;;;;9.23;6.18;;;;;;;;;;4916726;29;20558;-73
2022/05/10 00:50:49;;;;;;;14.43;6.07;;;;;;;;;;4916892;29;20040;-74
2022/05/10 00:53:26;;;;;;;10.93;5.70;;;;;;;;;;4916858;29;20049;-74
2022/05/10 00:55:58;;;;;;;12.00;5.53;;;;;;;;;;4917278;29;20075;-74
2022/05/10 00:58:35;;;;;;;9.82;5.32;;;;;;;;;;4916568;29;20052;-74
2022/05/10 01:01:07;;;;;;;10.05;5.32;;;;;;;;;;4916630;29;20466;-74
2022/05/10 01:03:38;;;;;;;10.40;5.20;;;;;;;;;;4916687;29;20103;-74
2022/05/10 01:06:29;;;;;;;11.05;6.00;;;;;;;;;;4916723;29;20040;-73
2022/05/10 01:08:58;;;;;;;39.70;25.95;;;;;;;;;;4916211;29;20052;-73
2022/05/10 01:11:32;;;;;;;30.67;19.02;;;;;;;;;;4916505;29;20044;-74
2022/05/10 01:14:07;;;;;;;12.17;7.37;;;;;;;;;;4916656;29;20040;-74
2022/05/10 01:16:37;;;;;;;13.20;6.53;;;;;;;;;;4916333;29;20044;-74
2022/05/10 01:19:04;;;;;;;15.50;9.23;;;;;;;;;;4899462;29;20063;-73
2022/05/10 01:21:37;;;;;;;17.00;10.85;;;;;;;;;;4916517;29;20044;-74
2022/05/10 01:24:26;;;;;;;9.45;5.20;;;;;;;;;;4918223;29;20050;-73
2022/05/10 01:27:19;;;;;;;9.27;5.15;;;;;;;;;;4920103;29;20072;-73
2022/05/10 01:29:51;;;;;;;8.68;5.25;;;;;;;;;;4919772;29;20048;-74
2022/05/10 01:35:11;;;;;;;10.68;5.97;;;;;;;;;;4921911;29;20062;-75
2022/05/10 01:37:44;;;;;;;12.13;5.80;;;;;;;;;;4927429;29;20048;-74
2022/05/10 01:40:34;;;;;;;10.85;5.47;;;;;;;;;;4921218;29;20087;-74
2022/05/10 01:43:13;;;;;;;11.18;5.57;;;;;;;;;;4919546;29;20103;-74
2022/05/10 01:45:47;;;;;;;10.45;5.60;;;;;;;;;;4919508;29;20040;-73
2022/05/10 01:48:17;;;;;;;9.45;5.45;;;;;;;;;;4919413;29;20040;-74
2022/05/10 01:50:52;;;;;;;14.18;5.63;;;;;;;;;;4918966;29;20552;-74
2022/05/10 01:53:35;;;;;;;11.52;6.07;;;;;;;;;;4902751;29;20153;-74
2022/05/10 01:56:30;;;;;;;12.82;6.88;;;;;;;;;;4919375;29;20480;-73
2022/05/10 01:59:27;;;;;;;10.75;6.05;;;;;;;;;;4919063;29;20127;-73
2022/05/10 02:01:55;;;;;;;17.08;12.05;;;;;;;;;;4919508;29;20047;-74
2022/05/10 02:04:31;;;;;;;8.50;5.60;;;;;;;;;;4918832;29;20048;-73
2022/05/10 02:07:03;;;;;;;8.98;5.47;;;;;;;;;;4918989;29;20041;-74
2022/05/10 02:09:47;;;;;;;10.75;5.65;;;;;;;;;;4919349;29;20048;-74
2022/05/10 02:12:31;;;;;;;10.48;5.78;;;;;;;;;;4919035;29;20127;-74
2022/05/10 02:15:24;;;;;;;11.57;6.03;;;;;;;;;;4918874;29;20113;-74
2022/05/10 02:18:12;;;;;;;13.38;6.40;;;;;;;;;;4918781;29;20052;-74
2022/05/10 02:20:54;;;;;;;12.23;6.65;;;;;;;;;;4918807;29;20048;-74
2022/05/10 02:23:51;;;;;;;7.78;5.65;;;;;;;;;;4918441;29;20411;-74
2022/05/10 02:26:22;;;;;;;12.65;6.97;;;;;;;;;;4918958;29;20088;-74
2022/05/10 02:29:23;;;;;;;14.05;6.47;;;;;;;;;;4918305;29;20052;-73
2022/05/10 02:36:16;;;;;;;14.45;7.45;;;;;;;;;;4917901;29;20115;-74
2022/05/10 02:39:09;;;;;;;18.73;7.95;;;;;;;;;;4918291;29;20063;-74
2022/05/10 02:41:36;;;;;;;11.65;6.10;;;;;;;;;;4901371;29;20068;-73
2022/05/10 02:44:21;;;;;;;11.38;5.75;;;;;;;;;;4918367;29;20040;-73
2022/05/10 02:46:55;;;;;;;14.48;8.45;;;;;;;;;;4918192;29;20040;-73
2022/05/10 02:49:29;;;;;;;11.25;7.38;;;;;;;;;;4918577;29;20048;-74
2022/05/10 02:52:23;;;;;;;11.85;7.03;;;;;;;;;;4918439;29;20431;-74
2022/05/10 02:59:06;;;;;;;9.65;5.90;;;;;;;;;;4918318;29;20031;-74
2022/05/10 03:02:04;;;;;;;10.95;6.22;;;;;;;;;;4919346;29;20108;-74
2022/05/10 03:04:57;;;;;;;9.93;6.47;;;;;;;;;;4917329;29;20488;-74
2022/05/10 03:07:53;;;;;;;13.48;6.18;;;;;;;;;;4918615;29;20048;-74
2022/05/10 03:10:45;;;;;;;10.30;6.47;;;;;;;;;;4918311;29;20068;-73
2022/05/10 03:13:19;;;;;;;16.85;7.05;;;;;;;;;;4917864;29;20047;-73
2022/05/10 03:15:47;;;;;;;18.15;7.07;;;;;;;;;;4917760;29;20075;-73
2022/05/10 03:18:15;;;;;;;9.38;5.95;;;;;;;;;;4916949;29;20052;-74
2022/05/10 03:20:47;;;;;;;13.55;6.55;;;;;;;;;;4917784;29;20087;-74
2022/05/10 03:23:15;;;;;;;12.82;6.43;;;;;;;;;;4917536;29;20069;-73
2022/05/10 03:25:48;;;;;;;13.93;5.85;;;;;;;;;;4917634;29;20040;-73
2022/05/10 03:28:20;;;;;;;12.45;6.20;;;;;;;;;;4917872;29;20497;-73
2022/05/10 03:30:48;;;;;;;12.10;6.15;;;;;;;;;;4917819;29;20040;-73
2022/05/10 03:33:23;;;;;;;10.38;5.40;;;;;;;;;;4917594;29;20064;-73
2022/05/10 03:35:55;;;;;;;13.55;5.93;;;;;;;;;;4917389;29;20051;-73
2022/05/10 03:38:23;;;;;;;10.27;5.72;;;;;;;;;;4917429;29;20517;-74
2022/05/10 03:40:53;;;;;;;12.02;5.78;;;;;;;;;;4917309;29;20050;-73
2022/05/10 03:43:20;;;;;;;12.35;6.03;;;;;;;;;;4915735;29;20499;-73
2022/05/10 03:45:48;;;;;;;11.07;6.72;;;;;;;;;;4915134;29;20048;-73
2022/05/10 03:48:16;;;;;;;12.40;4.95;;;;;;;;;;4900197;29;20138;-73
2022/05/10 03:50:48;;;;;;;27.55;16.83;;;;;;;;;;4900439;29;20040;-73
2022/05/10 03:53:15;;;;;;;20.60;11.93;;;;;;;;;;4917164;29;20459;-72
2022/05/10 03:55:43;;;;;;;8.90;5.10;;;;;;;;;;4924879;29;20051;-73
2022/05/10 03:58:14;;;;;;;9.10;5.40;;;;;;;;;;4936208;29;20135;-73
2022/05/10 04:00:44;;;;;;;7.88;4.72;;;;;;;;;;4919099;29;20058;-72
2022/05/10 04:03:16;;;;;;;9.55;5.00;;;;;;;;;;4936315;29;20459;-74
2022/05/10 04:05:47;;;;;;;9.52;4.80;;;;;;;;;;4935837;29;20044;-73
2022/05/10 04:08:15;;;;;;;12.38;4.82;;;;;;;;;;4936173;29;20047;-72
2022/05/10 04:10:44;;;;;;;7.40;4.70;;;;;;;;;;4935959;29;20047;-73
2022/05/10 04:13:15;;;;;;;11.70;5.10;;;;;;;;;;4935804;29;20060;-72
2022/05/10 04:15:43;;;;;;;10.65;4.43;;;;;;;;;;4935856;29;20434;-72
2022/05/10 04:18:14;;;;;;;10.18;4.60;;;;;;;;;;4934887;29;20534;-72
2022/05/10 04:20:43;;;;;;;10.43;4.93;;;;;;;;;;4898109;29;20048;-73
2022/05/10 04:23:22;;;;;;;12.48;7.22;;;;;;;;;;4898262;29;20051;-73
2022/05/10 04:26:13;;;;;;;11.20;5.40;;;;;;;;;;4897778;29;20053;-73
2022/05/10 04:28:58;;;;;;;10.00;5.10;;;;;;;;;;4898309;29;20076;-75
2022/05/10 04:31:27;;;;;;;19.80;12.50;;;;;;;;;;4897452;29;20108;-74
2022/05/10 04:33:54;;;;;;;20.33;13.75;;;;;;;;;;4896681;29;20436;-73
2022/05/10 04:36:25;;;;;;;20.23;11.68;;;;;;;;;;4898057;29;20149;-72
2022/05/10 04:38:59;;;;;;;21.27;11.30;;;;;;;;;;4897961;29;20064;-72
2022/05/10 04:41:52;;;;;;;26.10;13.38;;;;;;;;;;4896758;29;20059;-72
2022/05/10 04:44:21;;;;;;;48.17;20.65;;;;;;;;;;4897422;29;20377;-73
2022/05/10 04:46:54;;;;;;;30.55;14.77;;;;;;;;;;4898073;29;20052;-72
2022/05/10 04:49:22;;;;;;;28.23;14.48;;;;;;;;;;4897919;29;20048;-72
2022/05/10 04:51:54;;;;;;;26.23;12.70;;;;;;;;;;4898087;29;20041;-72
2022/05/10 04:54:37;;;;;;;20.23;8.90;;;;;;;;;;4897970;29;20076;-72
2022/05/10 04:57:30;;;;;;;14.05;5.78;;;;;;;;;;4898297;29;20040;-73
2022/05/10 05:00:23;;;;;;;10.75;5.15;;;;;;;;;;4901604;29;20452;-73
2022/05/10 05:03:16;;;;;;;10.88;5.32;;;;;;;;;;4901683;29;20048;-72
2022/05/10 05:05:48;;;;;;;8.90;5.00;;;;;;;;;;4901359;29;20399;-74
2022/05/10 05:08:16;;;;;;;8.75;4.80;;;;;;;;;;4901376;29;20518;-72
2022/05/10 05:10:45;;;;;;;10.23;5.57;;;;;;;;;;4901651;29;20051;-74
2022/05/10 05:13:20;;;;;;;8.85;5.53;;;;;;;;;;4900911;29;20076;-73
2022/05/10 05:15:52;;;;;;;8.30;4.85;;;;;;;;;;4901299;29;20571;-73
2022/05/10 05:18:21;;;;;;;13.50;4.97;;;;;;;;;;4902386;29;20118;-73
2022/05/10 05:20:52;;;;;;;6.75;4.20;;;;;;;;;;4921585;29;20523;-73
2022/05/10 05:23:23;;;;;;;10.48;4.60;;;;;;;;;;4938826;29;20048;-74
2022/05/10 05:25:55;;;;;;;9.90;4.88;;;;;;;;;;4938749;29;20040;-73
2022/05/10 05:28:31;;;;;;;8.70;4.57;;;;;;;;;;4938707;29;20451;-74
2022/05/10 05:31:00;;;;;;;9.70;4.55;;;;;;;;;;4939179;29;20051;-74
2022/05/10 05:33:55;;;;;;;13.63;6.75;;;;;;;;;;4939009;29;20084;-73
2022/05/10 05:37:32;;;;;;;10.40;6.03;;;;;;;;;;4938962;29;20044;-73
2022/05/10 05:39:38;;;;;;;8.85;5.32;;;;;;;;;;4938538;29;20490;-73
2022/05/10 05:42:10;;;;;;;7.78;4.47;;;;;;;;;;4938601;29;20095;-73
2022/05/10 05:44:42;;;;;;;5.45;3.65;;;;;;;;;;4938448;29;20127;-73
2022/05/10 05:47:10;;;;;;;8.15;4.40;;;;;;;;;;4938593;29;20046;-73
2022/05/10 05:50:03;;;;;;;8.82;4.82;;;;;;;;;;4938594;29;20039;-73
2022/05/10 05:52:35;;;;;;;7.40;4.05;;;;;;;;;;4938382;29;20052;-73
2022/05/10 05:55:12;;;;;;;7.15;3.53;;;;;;;;;;4921735;29;20051;-74
2022/05/10 05:57:40;;;;;;;7.28;4.20;;;;;;;;;;4938497;29;20123;-74
2022/05/10 06:00:34;;;;;;;6.72;4.13;;;;;;;;;;4938268;29;20055;-74
2022/05/10 06:03:05;;;;;;;9.95;3.60;;;;;;;;;;4938534;29;20059;-73
2022/05/10 06:05:38;;;;;;;8.50;4.13;;;;;;;;;;4938118;29;20126;-73
2022/05/10 06:08:08;;;;;;;6.93;3.90;;;;;;;;;;4938335;29;20048;-73
2022/05/10 06:10:38;;;;;;;5.22;3.60;;;;;;;;;;4937230;29;20076;-73
2022/05/10 06:13:09;;;;;;;7.18;3.70;;;;;;;;;;4938459;29;20044;-73
2022/05/10 06:15:38;;;;;;;5.28;3.42;;;;;;;;;;4938271;29;20455;-73
2022/05/10 06:18:06;;;;;;;5.63;3.53;;;;;;;;;;4937644;29;20055;-74
2022/05/10 06:20:35;;;;;;;7.25;3.90;;;;;;;;;;4937655;29;20052;-73
2022/05/10 06:23:10;;;;;;;5.07;3.50;;;;;;;;;;4937958;29;20413;-73
2022/05/10 06:25:37;;;;;;;6.25;3.78;;;;;;;;;;4937926;29;20486;-73
2022/05/10 06:28:07;;;;;;;7.60;4.32;;;;;;;;;;4937625;29;20099;-73
2022/05/10 06:30:39;;;;;;;7.22;3.60;;;;;;;;;;4937681;29;20414;-73
2022/05/10 06:33:08;;;;;;;4.95;3.35;;;;;;;;;;4937540;29;20127;-73
2022/05/10 06:35:38;;;;;;;7.22;3.95;;;;;;;;;;4937411;29;20051;-73
2022/05/10 06:38:27;;;;;;;8.05;4.90;;;;;;;;;;4937706;29;20094;-73
2022/05/10 06:41:06;;;;;;;10.38;3.78;;;;;;;;;;4937694;29;20043;-73
2022/05/10 06:43:38;;;;;;;6.93;3.88;;;;;;;;;;4937174;29;20483;-73
2022/05/10 06:46:21;;;;;;;9.88;4.18;;;;;;;;;;4920500;29;20447;-73
2022/05/10 06:48:50;;;;;;;7.40;4.10;;;;;;;;;;4937640;29;20510;-73
2022/05/10 06:51:23;;;;;;;5.88;3.83;;;;;;;;;;4937468;29;20040;-73
2022/05/10 06:53:53;;;;;;;9.13;5.50;;;;;;;;;;4937136;29;20051;-73
2022/05/10 06:56:22;;;;;;;6.63;3.88;;;;;;;;;;4936988;29;20494;-74
2022/05/10 06:58:55;;;;;;;8.50;6.40;;;;;;;;;;4937397;29;20127;-74
2022/05/10 07:01:23;;;;;;;4.50;3.45;;;;;;;;;;4937060;29;20040;-74
2022/05/10 07:03:52;;;;;;;6.22;3.28;;;;;;;;;;4936865;29;20099;-74
2022/05/10 07:06:24;;;;;;;4.45;3.30;;;;;;;;;;4937104;29;20095;-73
2022/05/10 07:08:52;;;;;;;5.53;3.55;;;;;;;;;;4937102;29;20077;-73
2022/05/10 07:11:20;;;;;;;7.57;3.30;;;;;;;;;;4936948;29;20059;-73
2022/05/10 07:13:56;;;;;;;4.95;3.35;;;;;;;;;;4937045;29;20044;-73
2022/05/10 07:16:23;;;;;;;5.20;3.13;;;;;;;;;;4936911;29;20044;-73
2022/05/10 07:18:51;;;;;;;3.83;3.08;;;;;;;;;;4936367;29;20055;-74
2022/05/10 07:21:18;;;;;;;4.78;3.28;;;;;;;;;;4937019;29;20047;-74
2022/05/10 07:23:48;;;;;;;6.60;3.60;;;;;;;;;;4936622;29;20047;-74
2022/05/10 07:26:18;;;;;;;4.05;3.28;;;;;;;;;;4936602;29;20450;-74
2022/05/10 07:28:48;;;;;;;5.93;3.80;;;;;;;;;;4936860;29;20464;-75
2022/05/10 07:31:18;;;;;;;4.95;3.08;;;;;;;;;;4936700;29;20491;-74
2022/05/10 07:33:53;;;;;;;5.82;2.78;;;;;;;;;;4936828;29;20043;-74
2022/05/10 07:36:24;;;;;;;3.85;2.90;;;;;;;;;;4936700;29;20118;-74
2022/05/10 07:38:58;;;;;;;5.20;2.78;;;;;;;;;;4936442;29;20043;-75
2022/05/10 07:41:26;;;;;;;4.07;2.78;;;;;;;;;;4936308;29;20052;-74
2022/05/10 07:44:18;;;;;;;2.88;2.55;;;;;;;;;;4936481;29;20044;-74
2022/05/10 07:47:11;;;;;;;4.30;2.90;;;;;;;;;;4936654;29;20094;-74
2022/05/10 07:49:42;;;;;;;3.90;2.80;;;;;;;;;;4936305;29;20051;-74
2022/05/10 07:52:17;;;;;;;14.20;5.35;;;;;;;;;;4936381;29;20050;-74
2022/05/10 07:54:45;;;;;;;4.97;3.13;;;;;;;;;;4936391;29;20044;-74
2022/05/10 07:57:12;;;;;;;4.10;2.88;;;;;;;;;;4936469;29;20050;-74
2022/05/10 07:59:42;;;;;;;6.25;4.18;;;;;;;;;;4936098;29;20044;-75
2022/05/10 08:02:16;;;;;;;4.43;3.22;;;;;;;;;;4936000;29;20040;-74
2022/05/10 08:04:45;;;;;;;9.18;5.68;;;;;;;;;;4918965;29;20062;-74
2022/05/10 08:07:15;;;;;;;5.18;3.33;;;;;;;;;;4935917;29;20048;-74
2022/05/10 08:09:47;;;;;;;4.10;3.10;;;;;;;;;;4936123;29;20054;-74
2022/05/10 08:12:15;;;;;;;5.03;2.97;;;;;;;;;;4936186;29;20087;-74
2022/05/10 08:14:45;;;;;;;10.23;5.60;;;;;;;;;;4935850;29;20043;-74
2022/05/10 08:17:16;;;;;;;5.90;3.53;;;;;;;;;;4936375;29;20524;-74
2022/05/10 08:19:45;;;;;;;4.65;3.33;;;;;;;;;;4935962;29;20111;-75
2022/05/10 08:22:14;;;;;;;5.10;3.38;;;;;;;;;;4935779;29;20043;-74
2022/05/10 08:24:48;;;;;;;8.68;5.53;;;;;;;;;;4918849;29;20051;-74
2022/05/10 08:27:16;;;;;;;4.28;3.17;;;;;;;;;;4936136;29;20079;-74
2022/05/10 08:29:46;;;;;;;5.55;3.53;;;;;;;;;;4935676;29;20048;-74
2022/05/10 08:32:27;;;;;;;6.13;3.55;;;;;;;;;;4937100;29;20454;-74
2022/05/10 08:34:58;;;;;;;5.35;3.60;;;;;;;;;;4940012;29;20111;-74
2022/05/10 08:37:30;;;;;;;5.43;3.50;;;;;;;;;;4939515;29;20044;-75
2022/05/10 08:40:00;;;;;;;6.30;3.53;;;;;;;;;;4939890;29;20099;-75
2022/05/10 08:42:37;;;;;;;4.88;3.78;;;;;;;;;;4939686;29;20122;-74
2022/05/10 08:45:06;;;;;;;5.45;3.63;;;;;;;;;;4939410;29;20043;-75
2022/05/10 08:47:37;;;;;;;6.45;4.50;;;;;;;;;;4939443;29;20177;-75
2022/05/10 08:50:13;;;;;;;6.75;3.97;;;;;;;;;;4939929;29;20435;-74
2022/05/10 08:53:02;;;;;;;5.32;3.70;;;;;;;;;;4939794;29;20083;-73
2022/05/10 08:55:30;;;;;;;5.55;3.88;;;;;;;;;;4939129;29;20427;-74
2022/05/10 08:58:19;;;;;;;10.88;4.15;;;;;;;;;;4939547;29;20048;-74
2022/05/10 09:01:11;;;;;;;7.05;3.95;;;;;;;;;;4939254;29;20067;-73
2022/05/10 09:03:59;;;;;;;6.40;3.85;;;;;;;;;;4939296;29;20039;-73
2022/05/10 09:06:31;;;;;;;8.23;4.40;;;;;;;;;;4939427;29;20103;-73
2022/05/10 09:09:10;;;;;;;10.20;6.18;;;;;;;;;;4939015;29;20067;-73
2022/05/10 09:12:01;;;;;;;7.25;4.82;;;;;;;;;;4939109;29;20121;-74
2022/05/10 09:14:34;;;;;;;7.57;3.78;;;;;;;;;;4939052;29;20071;-74
2022/05/10 09:17:10;;;;;;;9.52;5.97;;;;;;;;;;4939177;29;20107;-73
2022/05/10 09:19:39;;;;;;;7.82;5.97;;;;;;;;;;4939115;29;20463;-73
2022/05/10 09:22:47;;;;;;;9.05;4.40;;;;;;;;;;4938674;29;20537;-74
2022/05/10 09:25:35;;;;;;;9.95;6.57;;;;;;;;;;4938928;29;20071;-74
2022/05/10 09:28:13;;;;;;;6.50;4.07;;;;;;;;;;4938627;29;20106;-73
2022/05/10 09:34:45;;;;;;;8.52;4.60;;;;;;;;;;4922305;29;20498;-73
2022/05/10 09:36:39;;;;;;;10.18;5.35;;;;;;;;;;4938578;29;20127;-73
2022/05/10 09:39:22;;;;;;;7.60;5.18;;;;;;;;;;4939013;29;20067;-73
2022/05/10 09:41:54;;;;;;;7.88;4.10;;;;;;;;;;4938346;29;20106;-74
2022/05/10 09:44:28;;;;;;;4.90;3.38;;;;;;;;;;4937193;29;20051;-73
2022/05/10 09:47:14;;;;;;;6.63;3.78;;;;;;;;;;4938734;29;20043;-74
2022/05/10 09:49:44;;;;;;;7.32;6.07;;;;;;;;;;4921536;29;20460;-73
2022/05/10 09:52:18;;;;;;;7.03;3.80;;;;;;;;;;4938357;29;20048;-73
2022/05/10 09:54:49;;;;;;;13.27;9.35;;;;;;;;;;4938637;29;20554;-75
2022/05/10 09:57:34;;;;;;;11.52;9.30;;;;;;;;;;4938173;29;20043;-74
2022/05/10 10:00:05;;;;;;;5.38;3.75;;;;;;;;;;4938085;29;20380;-73
2022/05/10 10:02:43;;;;;;;7.05;4.22;;;;;;;;;;4938107;29;20052;-74
2022/05/10 10:05:31;;;;;;;7.90;5.82;;;;;;;;;;4938340;29;20451;-73
2022/05/10 10:08:24;;;;;;;7.13;4.60;;;;;;;;;;4938346;29;20148;-73
2022/05/10 10:10:52;;;;;;;8.95;6.82;;;;;;;;;;4938139;29;20099;-74
2022/05/10 10:13:33;;;;;;;9.05;5.97;;;;;;;;;;4937725;29;20050;-74
2022/05/10 10:16:14;;;;;;;6.40;4.40;;;;;;;;;;4938157;29;20052;-73
2022/05/10 10:18:53;;;;;;;8.07;3.78;;;;;;;;;;4937925;29;20057;-73
2022/05/10 10:21:47;;;;;;;9.05;3.80;;;;;;;;;;4937888;29;20044;-75
2022/05/10 10:24:22;;;;;;;6.95;4.13;;;;;;;;;;4902834;29;20079;-73
2022/05/10 10:26:52;;;;;;;5.80;3.92;;;;;;;;;;4937659;29;20039;-73
2022/05/10 10:29:36;;;;;;;5.30;4.22;;;;;;;;;;4937618;29;20091;-73
2022/05/10 10:32:15;;;;;;;8.48;4.45;;;;;;;;;;4937805;29;20043;-73
2022/05/10 10:34:57;;;;;;;7.93;4.25;;;;;;;;;;4937547;29;20091;-74
2022/05/10 10:37:41;;;;;;;7.45;3.85;;;;;;;;;;4937579;29;20043;-74
2022/05/10 10:40:27;;;;;;;7.60;4.30;;;;;;;;;;4937611;29;20119;-73
2022/05/10 10:43:09;;;;;;;10.15;4.60;;;;;;;;;;4937284;29;20053;-74
2022/05/10 10:45:52;;;;;;;7.28;4.13;;;;;;;;;;4937572;29;20554;-74
2022/05/10 10:48:28;;;;;;;7.10;4.53;;;;;;;;;;4937373;29;20044;-74
2022/05/10 10:50:58;;;;;;;9.18;5.63;;;;;;;;;;4937806;29;20135;-74
2022/05/10 10:53:29;;;;;;;8.00;3.80;;;;;;;;;;4937408;29;20039;-74
2022/05/10 10:56:12;;;;;;;6.05;3.70;;;;;;;;;;4936878;29;20047;-73
2022/05/10 10:58:53;;;;;;;5.65;3.85;;;;;;;;;;4937094;29;20431;-74
2022/05/10 11:01:49;;;;;;;4.78;3.58;;;;;;;;;;4936908;29;20058;-74
2022/05/10 11:04:19;;;;;;;5.95;4.28;;;;;;;;;;4937017;29;20063;-74
2022/05/10 11:06:53;;;;;;;5.60;3.50;;;;;;;;;;4936812;29;20491;-73
2022/05/10 11:09:33;;;;;;;4.80;3.35;;;;;;;;;;4937384;29;20047;-74
2022/05/10 11:12:05;;;;;;;4.70;3.20;;;;;;;;;;4936565;29;20499;-74
2022/05/10 11:14:37;;;;;;;6.40;3.58;;;;;;;;;;4936833;29;20047;-74
2022/05/10 11:17:30;;;;;;;6.97;3.85;;;;;;;;;;4936849;29;20487;-73
2022/05/10 11:20:23;;;;;;;3.92;3.50;;;;;;;;;;4936828;29;20134;-74
2022/05/10 11:23:00;;;;;;;6.55;4.15;;;;;;;;;;4936579;29;20456;-74
2022/05/10 11:25:48;;;;;;;10.60;3.92;;;;;;;;;;4936895;29;20047;-73
2022/05/10 11:28:23;;;;;;;5.28;3.50;;;;;;;;;;4936760;29;20082;-74
2022/05/10 11:31:11;;;;;;;4.10;3.40;;;;;;;;;;4936631;29;20043;-74
2022/05/10 11:33:45;;;;;;;6.47;3.60;;;;;;;;;;4920258;29;20056;-74
2022/05/10 11:36:38;;;;;;;4.90;3.13;;;;;;;;;;4936584;29;20039;-74
2022/05/10 11:39:08;;;;;;;5.75;3.50;;;;;;;;;;4924927;29;20083;-73
2022/05/10 11:41:57;;;;;;;5.30;3.40;;;;;;;;;;4936523;29;20044;-74
2022/05/10 11:44:40;;;;;;;4.60;3.20;;;;;;;;;;4936496;29;20130;-74
2022/05/10 11:47:27;;;;;;;5.80;4.40;;;;;;;;;;4936483;29;20044;-74
2022/05/10 11:50:15;;;;;;;5.18;3.00;;;;;;;;;;4936609;29;20494;-74
2022/05/10 11:52:51;;;;;;;6.95;3.33;;;;;;;;;;4936104;29;20122;-73
2022/05/10 11:55:19;;;;;;;7.05;3.17;;;;;;;;;;4936639;29;20480;-74
2022/05/10 11:57:54;;;;;;;5.97;3.08;;;;;;;;;;4936301;29;20115;-74
2022/05/10 12:00:29;;;;;;;5.50;3.20;;;;;;;;;;4919209;29;20048;-75
2022/05/10 12:03:01;;;;;;;7.50;3.00;;;;;;;;;;4936998;29;20071;-74
2022/05/10 12:05:39;;;;;;;6.80;3.10;;;;;;;;;;4935854;29;20047;-74
2022/05/10 12:08:19;;;;;;;6.25;3.40;;;;;;;;;;4936011;29;20075;-74
2022/05/10 12:10:48;;;;;;;5.15;3.35;;;;;;;;;;4919029;29;20052;-73
2022/05/10 12:22:48;;;;;;;5.03;3.55;;;;;;;;;;4935338;29;20043;-74
2022/05/10 12:25:38;;;;;;;6.57;3.47;;;;;;;;;;4935542;29;20047;-74
2022/05/10 12:28:07;;;;;;;6.63;2.90;;;;;;;;;;4935694;29;20495;-75
2022/05/10 12:30:44;;;;;;;5.53;2.88;;;;;;;;;;4936106;29;20040;-74
2022/05/10 12:33:32;;;;;;;7.20;3.50;;;;;;;;;;4936070;29;20495;-74
2022/05/10 12:36:07;;;;;;;3.97;2.83;;;;;;;;;;4935690;29;20577;-74
2022/05/10 12:38:50;;;;;;;6.32;3.10;;;;;;;;;;4935847;29;20055;-74
2022/05/10 12:41:39;;;;;;;3.83;3.08;;;;;;;;;;4936562;29;20427;-74
2022/05/10 12:44:30;;;;;;;5.68;3.50;;;;;;;;;;4936325;29;20046;-74
2022/05/10 12:47:16;;;;;;;4.97;2.80;;;;;;;;;;4892997;29;20048;-73
2022/05/10 12:50:09;;;;;;;6.07;3.30;;;;;;;;;;4935427;29;20047;-75
2022/05/10 12:52:43;;;;;;;7.55;3.28;;;;;;;;;;4935691;29;20434;-74
2022/05/10 12:55:23;;;;;;;4.45;2.92;;;;;;;;;;4935472;29;20040;-74
2022/05/10 12:58:10;;;;;;;4.80;3.10;;;;;;;;;;4935299;29;20486;-74
2022/05/10 13:00:43;;;;;;;5.78;3.00;;;;;;;;;;4935621;29;20044;-74
2022/05/10 13:03:14;;;;;;;5.35;3.25;;;;;;;;;;4935119;29;20099;-74
2022/05/10 13:05:51;;;;;;;6.15;3.10;;;;;;;;;;4935373;29;20048;-74
2022/05/10 13:08:38;;;;;;;5.30;3.42;;;;;;;;;;4935629;29;20491;-74
2022/05/10 13:11:31;;;;;;;21.70;15.73;;;;;;;;;;4921118;29;20047;-74
2022/05/10 13:14:03;;;;;;;10.13;4.22;;;;;;;;;;4918574;29;20050;-74
2022/05/10 13:16:33;;;;;;;4.90;3.05;;;;;;;;;;4935301;29;20059;-75
2022/05/10 13:19:02;;;;;;;5.55;3.22;;;;;;;;;;4936200;29;20479;-75
2022/05/10 13:21:32;;;;;;;6.85;4.43;;;;;;;;;;4921869;29;20388;-74
2022/05/10 13:24:09;;;;;;;4.38;3.10;;;;;;;;;;4939323;29;20075;-74
2022/05/10 13:26:50;;;;;;;4.80;3.20;;;;;;;;;;4938973;29;20040;-75
2022/05/10 13:29:22;;;;;;;9.10;3.20;;;;;;;;;;4939084;29;20039;-74
2022/05/10 13:31:53;;;;;;;5.65;3.40;;;;;;;;;;4939549;29;20056;-75
2022/05/10 13:34:23;;;;;;;4.57;3.10;;;;;;;;;;4921563;29;20040;-74
2022/05/10 13:36:53;;;;;;;5.32;3.25;;;;;;;;;;4938699;29;20040;-75
2022/05/10 13:39:31;;;;;;;6.25;2.97;;;;;;;;;;4934082;29;20482;-75
2022/05/10 13:42:08;;;;;;;3.67;3.20;;;;;;;;;;4938777;29;20051;-74
2022/05/10 13:44:40;;;;;;;4.50;2.70;;;;;;;;;;4937844;29;20099;-75
2022/05/10 13:47:16;;;;;;;7.05;3.58;;;;;;;;;;4938276;29;20479;-75
2022/05/10 13:49:44;;;;;;;5.72;3.15;;;;;;;;;;4938039;29;20189;-73
2022/05/10 13:52:26;;;;;;;4.63;3.10;;;;;;;;;;4938628;29;20398;-74
2022/05/10 13:55:02;;;;;;;4.88;3.15;;;;;;;;;;4938190;29;20074;-74
2022/05/10 13:57:32;;;;;;;5.40;3.10;;;;;;;;;;4937960;29;20048;-74
2022/05/10 14:00:15;;;;;;;5.05;3.10;;;;;;;;;;4921542;29;20122;-73
2022/05/10 14:02:45;;;;;;;4.07;2.90;;;;;;;;;;4938296;29;20062;-73
2022/05/10 14:05:17;;;;;;;6.22;3.40;;;;;;;;;;4937917;29;20043;-73
2022/05/10 14:11:07;;;;;;;5.57;3.10;;;;;;;;;;4921210;29;20106;-73
2022/05/10 14:14:08;;;;;;;5.03;3.50;;;;;;;;;;4938016;29;20048;-73
2022/05/10 14:16:37;;;;;;;4.78;2.75;;;;;;;;;;4937539;29;20040;-73
2022/05/10 14:19:08;;;;;;;25.60;13.13;;;;;;;;;;4929812;29;20115;-74
2022/05/10 14:21:43;;;;;;;4.63;3.00;;;;;;;;;;4918550;29;20209;-73
2022/05/10 14:24:13;;;;;;;4.50;2.90;;;;;;;;;;4925409;29;20047;-73
2022/05/10 14:26:44;;;;;;;4.03;3.00;;;;;;;;;;4918454;29;20123;-74
2022/05/10 14:29:28;;;;;;;5.85;3.58;;;;;;;;;;4935057;29;20072;-73
2022/05/10 14:32:02;;;;;;;7.25;3.13;;;;;;;;;;4918942;29;20510;-73
2022/05/10 14:34:45;;;;;;;4.57;3.33;;;;;;;;;;4918905;29;20139;-73
2022/05/10 14:37:18;;;;;;;6.43;3.58;;;;;;;;;;4918569;29;20127;-74
2022/05/10 14:39:46;;;;;;;11.73;6.47;;;;;;;;;;4918559;29;20048;-73
2022/05/10 14:42:25;;;;;;;5.70;3.75;;;;;;;;;;4918343;29;20055;-73
2022/05/10 14:44:54;;;;;;;6.93;2.97;;;;;;;;;;4918199;29;20043;-72
2022/05/10 14:47:24;;;;;;;3.75;3.03;;;;;;;;;;4918213;29;20467;-71
2022/05/10 14:49:53;;;;;;;4.72;3.10;;;;;;;;;;4918284;29;20542;-73
2022/05/10 14:52:26;;;;;;;6.25;3.30;;;;;;;;;;4918038;29;20041;-73
2022/05/10 14:55:19;;;;;;;6.55;2.95;;;;;;;;;;4918265;29;20412;-73
2022/05/10 14:57:58;;;;;;;7.75;3.40;;;;;;;;;;4918167;29;20459;-73
2022/05/10 15:00:29;;;;;;;6.30;2.80;;;;;;;;;;4917849;29;20496;-74
2022/05/10 15:03:18;;;;;;;5.22;2.78;;;;;;;;;;4918216;29;20055;-73
2022/05/10 15:05:48;;;;;;;5.78;3.08;;;;;;;;;;4918660;29;20123;-73
2022/05/10 15:08:16;;;;;;;5.63;3.20;;;;;;;;;;4917810;29;20104;-72
2022/05/10 15:10:49;;;;;;;7.80;3.20;;;;;;;;;;4918078;29;20044;-72
2022/05/10 15:13:17;;;;;;;6.25;2.85;;;;;;;;;;4917495;29;20063;-72
2022/05/10 15:15:45;;;;;;;7.88;3.03;;;;;;;;;;4918066;29;20056;-72
2022/05/10 15:21:08;;;;;;;8.43;3.20;;;;;;;;;;4917974;29;20435;-72
2022/05/10 15:23:40;;;;;;;4.20;2.90;;;;;;;;;;4917756;29;20079;-72
2022/05/10 15:26:33;;;;;;;4.15;3.15;;;;;;;;;;4917425;29;20055;-73
2022/05/10 15:29:25;;;;;;;5.10;3.35;;;;;;;;;;4917113;29;20032;-73
2022/05/10 15:31:52;;;;;;;5.22;3.00;;;;;;;;;;4918223;29;20036;-73
2022/05/10 15:37:13;;;;;;;7.50;3.53;;;;;;;;;;4936747;29;20487;-78
2022/05/10 15:39:41;;;;;;;8.00;3.20;;;;;;;;;;4933526;29;20098;-78
2022/05/10 15:42:17;;;;;;;8.90;3.28;;;;;;;;;;4935129;29;20044;-82
2022/05/10 15:44:46;;;;;;;5.80;3.60;;;;;;;;;;4934947;29;20071;-79
2022/05/10 15:47:16;;;;;;;5.88;2.97;;;;;;;;;;4936351;29;20047;-81
2022/05/10 15:49:43;;;;;;;4.32;2.60;;;;;;;;;;4936150;29;20075;-73
2022/05/10 15:52:12;;;;;;;6.43;3.00;;;;;;;;;;4936562;29;20439;-79
2022/05/10 15:54:42;;;;;;;6.75;3.33;;;;;;;;;;4936263;29;20459;-75
2022/05/10 15:57:25;;;;;;;7.03;2.85;;;;;;;;;;4936511;29;20051;-73
2022/05/10 16:03:58;;;;;;;5.07;3.50;;;;;;;;;;4931608;29;20477;-77
2022/05/10 16:06:26;;;;;;;6.22;2.70;;;;;;;;;;4917344;29;20055;-79
2022/05/10 16:08:53;;;;;;;7.40;3.38;;;;;;;;;;4916812;29;20431;-75